Time;durP1;ratioP1;P1;durP2;ratioP2;P2;SDS_P1;SDS_P2;PMS_P1;PMS_P2;Temp;Humidity;BMP_temperature;BMP_pressure;BME280_temperature;BME280_humidity;BME280_pressure;Samples;Min_cycle;Max_cycle;Signal;HPM_P1;HPM_P2
2023/05/29 09:53:42;;;;;;;;;;;26.30;50.90;;;;;;6111492;23;19927;-96
2023/05/29 09:56:17;;;;;;;;;;;26.30;50.30;;;;;;6167400;23;19931;-96
2023/05/29 09:58:46;;;;;;;;;;;26.30;49.30;;;;;;6168763;23;19916;-96
2023/05/29 16:13:01;;;;;;;;;;;26.60;46.80;;;;;;6124977;23;19983;-96
2023/05/29 16:15:29;;;;;;;;;;;26.60;46.50;;;;;;6099467;23;19897;-96
2023/05/29 16:17:59;;;;;;;;;;;26.50;47.70;;;;;;6099236;23;19945;-96
2023/05/29 16:20:28;;;;;;;;;;;26.50;47.10;;;;;;6123206;23;19932;-96
2023/05/29 16:22:56;;;;;;;;;;;26.40;48.70;;;;;;6124907;23;19909;-96
2023/05/29 16:25:25;;;;;;;;;;;26.40;49.60;;;;;;6128902;23;19949;-96
2023/05/29 16:27:57;;;;;;;;;;;26.30;48.40;;;;;;6146904;23;19909;-96
2023/05/29 16:30:29;;;;;;;;;;;26.10;48.50;;;;;;6127915;23;19912;-96
2023/05/29 16:32:58;;;;;;;;;;;25.90;49.10;;;;;;6128487;23;19889;-96
2023/05/29 16:35:28;;;;;;;;;;;25.80;50.00;;;;;;6127668;23;19916;-96
2023/05/29 16:37:55;;;;;;;;;;;25.70;49.60;;;;;;6125565;23;19932;-96
2023/05/29 16:40:27;;;;;;;;;;;25.50;50.20;;;;;;6127596;23;19912;-96
2023/05/29 16:42:56;;;;;;;;;;;25.50;50.40;;;;;;6127710;23;19901;-96
2023/05/29 16:45:24;;;;;;;;;;;25.50;50.10;;;;;;6150924;23;19909;-96
2023/05/29 16:47:52;;;;;;;;;;;25.60;49.60;;;;;;6153079;23;19916;-96
2023/05/29 16:50:28;;;;;;;;;;;25.60;49.70;;;;;;6153431;23;19912;-96
2023/05/29 16:52:56;;;;;;;;;;;25.60;49.50;;;;;;6127108;23;19920;-96
2023/05/29 16:55:27;;;;;;;;;;;25.50;49.70;;;;;;6152060;23;19905;-96
2023/05/29 16:58:00;;;;;;;;;;;25.40;50.00;;;;;;6152497;23;19938;-96
2023/05/29 17:00:33;;;;;;;;;;;25.30;51.10;;;;;;6152678;23;19905;-96
2023/05/29 17:03:10;;;;;;;;;;;25.30;51.60;;;;;;6146115;23;19897;-96
2023/05/29 17:05:45;;;;;;;;;;;25.30;51.90;;;;;;6154498;23;19889;-96
2023/05/29 17:08:18;;;;;;;;;;;25.40;50.90;;;;;;6153895;23;19893;-96
2023/05/29 17:10:47;;;;;;;;;;;25.40;51.30;;;;;;6154651;23;19968;-96
2023/05/29 17:23:48;;;;;;;;;;;25.60;52.40;;;;;;6096621;23;19929;-96
2023/05/29 17:26:25;;;;;;;;;;;25.60;52.70;;;;;;6182117;23;19913;-96
2023/05/29 17:29:13;;;;;;;;;;;25.60;52.00;;;;;;6187405;23;19892;-96
2023/05/29 17:31:40;;;;;;;;;;;25.60;52.40;;;;;;6186583;23;19928;-96
2023/05/29 17:37:36;;;;;;;;;;;25.30;53.00;;;;;;6213355;23;19980;-96
2023/05/29 17:48:20;;;;;;;;;;;25.30;57.10;;;;;;6135819;23;19905;-96
2023/05/29 17:50:53;;;;;;;;;;;25.20;54.70;;;;;;6160704;23;19905;-96
2023/05/29 18:27:20;;;;;;;;;;;23.80;61.50;;;;;;6125235;22;19927;-96
2023/05/29 18:30:04;;;;;;;;;;;23.80;61.10;;;;;;6126739;23;19936;-96
2023/05/29 18:33:02;;;;;;;;;;;23.80;60.80;;;;;;6126261;23;19893;-96
2023/05/29 18:35:44;;;;;;;;;;;23.70;61.60;;;;;;6100397;23;19901;-96
2023/05/29 18:38:18;;;;;;;;;;;23.80;61.50;;;;;;6149903;23;19921;-96
2023/05/29 18:40:54;;;;;;;;;;;23.80;58.00;;;;;;6123022;23;19905;-96
2023/05/29 18:43:23;;;;;;;;;;;23.80;57.60;;;;;;6104737;23;19914;-96
2023/05/29 18:45:56;;;;;;;;;;;23.80;57.80;;;;;;6119486;23;19896;-96
2023/05/29 18:48:47;;;;;;;;;;;23.80;57.80;;;;;;6135965;23;19913;-96
2023/05/29 18:51:20;;;;;;;;;;;23.70;62.60;;;;;;6129911;23;19935;-96
2023/05/29 18:54:02;;;;;;;;;;;23.70;60.00;;;;;;6126616;23;19893;-96
2023/05/29 18:57:02;;;;;;;;;;;23.70;56.30;;;;;;6153908;23;19913;-96
2023/05/29 18:59:37;;;;;;;;;;;23.60;57.60;;;;;;6128882;23;19952;-96
2023/05/29 19:02:05;;;;;;;;;;;23.40;58.70;;;;;;6124773;23;19932;-96
2023/05/29 19:04:36;;;;;;;;;;;23.30;59.00;;;;;;6128838;23;19916;-96
2023/05/29 19:07:05;;;;;;;;;;;23.20;60.10;;;;;;6127070;23;19909;-96
2023/05/29 19:09:56;;;;;;;;;;;23.10;61.10;;;;;;6131803;23;19916;-96
2023/05/29 19:12:26;;;;;;;;;;;23.20;61.00;;;;;;6130507;23;19889;-96
2023/05/29 19:22:50;;;;;;;;;;;22.90;62.40;;;;;;6165789;23;19920;-96
2023/05/29 19:25:21;;;;;;;;;;;22.80;62.20;;;;;;6184445;23;19911;-96
2023/05/29 19:28:01;;;;;;;;;;;22.70;62.40;;;;;;6183074;23;19911;-96
2023/05/29 19:38:15;;;;;;;;;;;22.30;65.80;;;;;;6124891;23;19921;-96
2023/05/29 19:40:43;;;;;;;;;;;22.20;66.10;;;;;;6100215;23;19909;-96
2023/05/29 19:43:16;;;;;;;;;;;22.20;65.00;;;;;;6101968;23;19937;-96
2023/05/29 19:45:51;;;;;;;;;;;22.20;66.20;;;;;;6130296;23;19912;-96
2023/05/29 19:48:18;;;;;;;;;;;22.20;65.70;;;;;;6128569;23;19893;-96
2023/05/29 19:50:47;;;;;;;;;;;22.10;66.60;;;;;;6128901;23;19920;-96
2023/05/29 19:53:26;;;;;;;;;;;22.00;67.10;;;;;;6129686;23;19893;-96
2023/05/29 19:56:19;;;;;;;;;;;21.90;67.60;;;;;;6154329;23;19933;-96
2023/05/29 19:58:56;;;;;;;;;;;21.80;68.10;;;;;;6155113;23;19933;-96
2023/05/29 20:01:24;;;;;;;;;;;21.80;69.60;;;;;;6128918;23;19905;-96
2023/05/29 20:04:02;;;;;;;;;;;21.90;69.40;;;;;;6155512;23;19913;-96
2023/05/29 20:06:33;;;;;;;;;;;21.90;69.40;;;;;;6154658;23;19896;-96
2023/05/29 20:09:06;;;;;;;;;;;21.80;69.50;;;;;;6154796;23;19916;-96
2023/05/29 20:11:45;;;;;;;;;;;21.80;70.10;;;;;;6132748;23;19944;-96
2023/05/29 20:14:21;;;;;;;;;;;21.70;68.80;;;;;;6128329;23;19909;-96
2023/05/29 20:16:51;;;;;;;;;;;21.60;67.80;;;;;;6127491;23;19924;-96
2023/05/29 20:19:34;;;;;;;;;;;21.50;66.90;;;;;;6130212;23;19937;-96
2023/05/29 20:22:12;;;;;;;;;;;21.50;67.70;;;;;;6155241;23;19916;-96
2023/05/29 20:24:58;;;;;;;;;;;;;;;;;;;;;
2023/05/29 20:27:30;;;;;;;;;;;21.30;68.70;;;;;;6154246;23;19916;-96
2023/05/29 20:30:23;;;;;;;;;;;21.30;67.20;;;;;;6130125;23;19941;-96
2023/05/29 20:33:07;;;;;;;;;;;21.30;66.30;;;;;;6130208;23;19937;-96
2023/05/29 20:35:38;;;;;;;;;;;21.40;66.30;;;;;;6110011;23;19893;-96
2023/05/29 20:39:08;;;;;;;;;;;21.40;66.80;;;;;;6168272;23;19960;-96
2023/05/29 23:22:14;;;;;;;;;;;21.60;65.00;;;;;;6100441;23;19931;31
2023/05/29 23:24:52;;;;;;;;;;;21.60;64.80;;;;;;6120301;23;20030;-96
2023/05/29 23:27:28;;;;;;;;;;;21.60;64.30;;;;;;6119395;23;19921;-96
2023/05/29 23:30:35;;;;;;;;;;;21.60;63.90;;;;;;6123996;23;19953;-96
2023/05/29 23:33:13;;;;;;;;;;;21.70;63.80;;;;;;6101605;23;19900;-96
2023/05/29 23:35:56;;;;;;;;;;;21.70;62.80;;;;;;6126250;23;19909;-96
2023/05/29 23:38:29;;;;;;;;;;;21.80;62.00;;;;;;6077758;23;19908;-96
2023/05/29 23:41:08;;;;;;;;;;;21.80;62.00;;;;;;6121661;23;19906;-96
2023/05/29 23:44:14;;;;;;;;;;;21.80;61.20;;;;;;6135493;23;19889;-96
2023/05/29 23:46:59;;;;;;;;;;;21.80;62.10;;;;;;6129605;23;19894;-96
2023/05/29 23:49:30;;;;;;;;;;;21.80;61.50;;;;;;6123095;23;19893;-96
2023/05/29 23:52:01;;;;;;;;;;;21.80;61.50;;;;;;6105798;23;19913;-97
2023/05/29 23:54:36;;;;;;;;;;;21.80;61.70;;;;;;6129669;23;19905;-96
2023/05/29 23:57:15;;;;;;;;;;;21.80;62.00;;;;;;6153572;23;19909;-96
2023/05/29 23:59:46;;;;;;;;;;;21.70;62.80;;;;;;6130364;23;19936;-96
